createdAt,value
2023-03-22T00:02:04.090Z,100345.16
2023-03-22T00:04:30.487Z,100347.31
2023-03-22T00:06:58.261Z,100344.72
2023-03-22T00:09:24.811Z,100348.41
2023-03-22T00:11:51.491Z,100341.00
2023-03-22T00:14:18.124Z,100342.44
2023-03-22T00:16:44.553Z,100343.28
2023-03-22T00:19:10.961Z,100342.88
2023-03-22T00:21:37.392Z,100336.31
2023-03-22T00:24:05.756Z,100341.31
2023-03-22T00:26:32.208Z,100338.25
2023-03-22T00:28:58.633Z,100327.53
2023-03-22T00:31:25.029Z,100326.59
2023-03-22T00:33:51.684Z,100335.88
2023-03-22T00:36:18.122Z,100334.69
2023-03-22T00:38:45.095Z,100319.50
2023-03-22T00:41:14.903Z,100324.75
2023-03-22T00:43:41.640Z,100323.25
2023-03-22T00:46:08.759Z,100317.69
2023-03-22T00:48:35.448Z,100318.81
2023-03-22T00:51:01.949Z,100312.31
2023-03-22T00:53:28.535Z,100316.09
2023-03-22T00:55:55.146Z,100308.06
2023-03-22T00:58:23.089Z,100300.25
2023-03-22T01:00:49.735Z,100309.81
2023-03-22T01:03:16.414Z,100297.69
2023-03-22T01:05:45.259Z,100293.19
2023-03-22T01:08:13.072Z,100292.63
2023-03-22T01:10:41.807Z,100294.47
2023-03-22T01:13:09.261Z,100280.75
2023-03-22T01:15:37.434Z,100289.69
2023-03-22T01:18:04.200Z,100279.63
2023-03-22T01:20:31.781Z,100280.84
2023-03-22T01:22:58.197Z,100284.44
2023-03-22T01:25:24.609Z,100276.47
2023-03-22T01:27:51.253Z,100278.28
2023-03-22T01:30:18.111Z,100276.63
2023-03-22T01:32:45.951Z,100277.94
2023-03-22T01:35:12.399Z,100270.25
2023-03-22T01:37:38.807Z,100275.19
2023-03-22T01:40:07.065Z,100270.16
2023-03-22T01:42:33.489Z,100266.38
2023-03-22T01:45:38.327Z,100266.34
2023-03-22T01:48:14.429Z,100267.66
2023-03-22T01:50:44.497Z,100266.06
2023-03-22T01:53:13.910Z,100254.88
2023-03-22T01:55:41.329Z,100261.03
2023-03-22T01:58:08.198Z,100251.50
2023-03-22T02:00:34.678Z,100245.31
2023-03-22T02:03:01.443Z,100250.44
2023-03-22T02:05:29.833Z,100243.34
2023-03-22T02:07:56.501Z,100244.94
2023-03-22T02:10:26.156Z,100236.91
2023-03-22T02:13:10.931Z,100244.03
2023-03-22T02:15:41.467Z,100238.81
2023-03-22T02:18:21.952Z,100231.25
2023-03-22T02:21:15.775Z,100230.06
2023-03-22T02:24:27.654Z,100222.34
2023-03-22T02:27:17.825Z,100227.56
2023-03-22T02:29:47.049Z,100233.69
2023-03-22T02:32:43.828Z,100230.66
2023-03-22T02:35:38.678Z,100221.50
2023-03-22T02:38:38.411Z,100231.56
2023-03-22T02:41:13.665Z,100225.25
2023-03-22T02:43:48.999Z,100227.44
2023-03-22T02:46:21.848Z,100223.22
2023-03-22T02:48:58.086Z,100225.81
2023-03-22T02:51:33.021Z,100229.53
2023-03-22T02:54:04.101Z,100220.00
2023-03-22T02:56:35.663Z,100228.25
2023-03-22T02:59:05.058Z,100215.66
2023-03-22T03:01:37.915Z,100220.28
2023-03-22T03:04:09.272Z,100218.66
2023-03-22T03:06:40.055Z,100222.22
2023-03-22T03:09:07.941Z,100221.06
2023-03-22T03:11:35.766Z,100216.81
2023-03-22T03:14:02.232Z,100219.56
2023-03-22T03:16:32.215Z,100199.59
2023-03-22T03:19:01.009Z,100203.38
2023-03-22T03:21:35.981Z,100206.41
2023-03-22T03:24:21.711Z,100214.00
2023-03-22T03:26:57.916Z,100217.13
2023-03-22T03:29:32.992Z,100213.03
2023-03-22T03:32:04.855Z,100214.34
2023-03-22T03:34:34.598Z,100212.75
2023-03-22T03:37:06.201Z,100208.81
2023-03-22T03:39:37.983Z,100206.97
2023-03-22T03:42:11.449Z,100205.13
2023-03-22T03:44:39.134Z,100195.38
2023-03-22T03:47:07.465Z,100192.78
2023-03-22T03:49:34.505Z,100195.03
2023-03-22T03:52:00.905Z,100194.69
2023-03-22T03:54:27.343Z,100180.91
2023-03-22T03:56:54.213Z,100175.44
2023-03-22T03:59:21.930Z,100183.91
2023-03-22T04:01:48.519Z,100183.59
2023-03-22T04:04:15.040Z,100184.00
2023-03-22T04:06:41.477Z,100178.25
2023-03-22T04:09:07.982Z,100175.38
2023-03-22T04:11:34.418Z,100172.00
2023-03-22T04:14:01.023Z,100166.31
2023-03-22T04:16:28.873Z,100174.28
2023-03-22T04:18:55.338Z,100169.69
2023-03-22T04:21:21.790Z,100167.84
2023-03-22T04:23:48.267Z,100170.69
2023-03-22T04:26:14.897Z,100163.97
2023-03-22T04:28:41.313Z,100164.53
2023-03-22T04:31:07.769Z,100170.94
2023-03-22T04:33:35.563Z,100164.97
2023-03-22T04:36:04.153Z,100167.06
2023-03-22T04:38:31.015Z,100162.56
2023-03-22T04:40:57.518Z,100162.31
2023-03-22T04:43:24.014Z,100166.94
2023-03-22T04:45:50.536Z,100158.66
2023-03-22T04:48:17.086Z,100166.97
2023-03-22T04:50:44.846Z,100158.91
2023-03-22T04:53:11.292Z,100159.03
2023-03-22T04:55:37.726Z,100147.00
2023-03-22T04:58:04.181Z,100161.75
2023-03-22T05:00:30.686Z,100154.91
2023-03-22T05:02:57.430Z,100166.69
2023-03-22T05:05:24.026Z,100151.34
2023-03-22T05:07:51.829Z,100162.63
2023-03-22T05:10:18.409Z,100156.34
2023-03-22T05:12:44.894Z,100148.47
2023-03-22T05:15:11.734Z,100146.41
2023-03-22T05:17:38.181Z,100153.88
2023-03-22T05:20:05.530Z,100155.34
2023-03-22T05:22:31.923Z,100154.19
2023-03-22T05:24:59.949Z,100150.91
2023-03-22T05:27:26.382Z,100152.38
2023-03-22T05:29:52.808Z,100147.91
2023-03-22T05:32:19.386Z,100157.66
2023-03-22T05:34:45.798Z,100143.84
2023-03-22T05:37:12.221Z,100146.84
2023-03-22T05:39:38.661Z,100144.56
2023-03-22T05:42:06.450Z,100147.16
2023-03-22T05:44:32.811Z,100145.19
2023-03-22T05:46:59.385Z,100142.97
2023-03-22T05:49:25.907Z,100131.25
2023-03-22T05:51:52.356Z,100134.22
2023-03-22T05:54:18.838Z,100122.75
2023-03-22T05:56:45.262Z,100128.56
2023-03-22T05:59:13.001Z,100128.38
2023-03-22T06:01:39.497Z,100121.72
2023-03-22T06:04:05.983Z,100121.94
2023-03-22T06:06:32.575Z,100108.09
2023-03-22T06:09:14.179Z,100123.56
2023-03-22T06:11:42.251Z,100123.81
2023-03-22T06:14:08.674Z,100125.19
2023-03-22T06:16:36.802Z,100125.75
2023-03-22T06:19:03.634Z,100116.63
2023-03-22T06:21:30.062Z,100119.97
2023-03-22T06:23:56.510Z,100134.78
2023-03-22T06:26:22.934Z,100116.38
2023-03-22T06:28:49.313Z,100106.16
2023-03-22T06:31:15.748Z,100110.06
2023-03-22T06:33:43.534Z,100123.03
2023-03-22T06:36:10.286Z,100120.31
2023-03-22T06:38:36.648Z,100116.44
2023-03-22T06:41:03.253Z,100124.25
2023-03-22T06:43:29.683Z,100127.50
2023-03-22T06:45:56.080Z,100121.44
2023-03-22T06:48:22.963Z,100113.50
2023-03-22T06:50:50.745Z,100120.50
2023-03-22T06:53:17.192Z,100110.34
2023-03-22T06:55:43.552Z,100112.75
2023-03-22T06:58:10.092Z,100108.06
2023-03-22T07:00:36.739Z,100103.19
2023-03-22T07:03:03.138Z,100112.25
2023-03-22T07:05:29.705Z,100108.03
2023-03-22T07:07:57.413Z,100110.66
2023-03-22T07:10:23.780Z,100107.09
2023-03-22T07:12:50.167Z,100106.16
2023-03-22T07:15:16.852Z,100109.22
2023-03-22T07:17:43.261Z,100109.56
2023-03-22T07:20:10.194Z,100114.03
2023-03-22T07:22:36.581Z,100119.59
2023-03-22T07:25:05.087Z,100117.66
2023-03-22T07:27:31.611Z,100120.97
2023-03-22T07:29:57.982Z,100121.59
2023-03-22T07:32:24.374Z,100111.94
2023-03-22T07:34:50.840Z,100103.16
2023-03-22T07:37:17.193Z,100107.69
2023-03-22T07:39:43.571Z,100100.34
2023-03-22T07:42:11.342Z,100101.19
2023-03-22T07:44:37.707Z,100100.69
2023-03-22T07:47:04.306Z,100092.25
2023-03-22T07:49:31.205Z,100098.22
2023-03-22T07:51:58.084Z,100105.59
2023-03-22T07:54:33.363Z,100101.03
2023-03-22T07:57:01.176Z,100096.78
2023-03-22T07:59:29.035Z,100090.22
2023-03-22T08:01:55.476Z,100093.84
2023-03-22T08:04:21.982Z,100093.28
2023-03-22T08:06:48.460Z,100089.34
2023-03-22T08:09:14.851Z,100095.50
2023-03-22T08:11:41.216Z,100096.31
2023-03-22T08:14:07.616Z,100094.41
2023-03-22T08:16:35.474Z,100092.78
2023-03-22T08:19:01.916Z,100080.97
2023-03-22T08:21:28.282Z,100076.22
2023-03-22T08:23:54.639Z,100080.22
2023-03-22T08:26:21.304Z,100070.53
2023-03-22T08:28:47.758Z,100083.03
2023-03-22T08:31:16.635Z,100070.78
2023-03-22T08:33:44.954Z,100067.13
2023-03-22T08:36:13.814Z,100063.81
2023-03-22T08:38:40.181Z,100071.59
2023-03-22T08:41:06.853Z,100057.25
2023-03-22T08:43:33.241Z,100066.16
2023-03-22T08:45:59.905Z,100054.53
2023-03-22T08:48:26.394Z,100057.59
2023-03-22T08:50:54.161Z,100052.47
2023-03-22T08:53:20.521Z,100048.69
2023-03-22T08:55:46.904Z,100042.16
2023-03-22T08:58:14.199Z,100047.75
2023-03-22T09:00:48.719Z,100047.09
2023-03-22T09:03:16.107Z,100043.03
2023-03-22T09:05:42.532Z,100041.38
2023-03-22T09:08:18.126Z,100043.84
2023-03-22T09:10:45.640Z,100041.63
2023-03-22T09:13:12.017Z,100041.00
2023-03-22T09:15:38.608Z,100034.16
2023-03-22T09:18:05.211Z,100030.59
2023-03-22T09:20:31.587Z,100025.44
2023-03-22T09:22:57.968Z,100013.13
2023-03-22T09:25:25.744Z,100012.28
2023-03-22T09:27:52.132Z,99999.59
2023-03-22T09:30:19.093Z,100006.13
2023-03-22T09:32:45.556Z,99997.56
2023-03-22T09:35:11.936Z,99993.72
2023-03-22T09:37:38.512Z,100008.16
2023-03-22T09:40:06.624Z,99995.91
2023-03-22T09:42:38.311Z,100000.38
2023-03-22T09:45:08.738Z,100000.22
2023-03-22T09:47:44.806Z,100004.47
2023-03-22T09:50:13.822Z,100002.25
2023-03-22T09:52:40.560Z,99991.72
2023-03-22T09:55:13.829Z,99988.34
2023-03-22T09:57:41.727Z,99982.38
2023-03-22T10:00:18.429Z,99981.91
2023-03-22T10:02:53.285Z,99981.47
2023-03-22T10:05:27.094Z,99975.44
2023-03-22T10:08:13.916Z,99983.06
2023-03-22T10:10:41.036Z,99980.56
2023-03-22T10:13:16.388Z,99978.72
2023-03-22T10:15:46.846Z,99976.38
2023-03-22T10:18:18.794Z,99976.34
2023-03-22T10:20:52.076Z,99973.94
2023-03-22T10:23:24.744Z,99970.47
2023-03-22T10:25:53.026Z,99968.88
2023-03-22T10:28:23.817Z,99968.28
2023-03-22T10:30:53.961Z,99971.03
2023-03-22T10:33:30.237Z,99965.13
2023-03-22T10:35:57.395Z,99958.44
2023-03-22T10:38:27.304Z,99954.72
2023-03-22T10:40:56.672Z,99964.97
2023-03-22T10:43:29.846Z,99959.22
2023-03-22T10:45:57.989Z,99955.56
2023-03-22T10:48:28.580Z,99959.06
2023-03-22T10:50:56.943Z,99969.72
2023-03-22T10:53:31.621Z,99972.06
2023-03-22T10:55:58.572Z,99959.47
2023-03-22T10:58:31.882Z,99956.44
2023-03-22T11:01:00.035Z,99965.63
2023-03-22T11:03:30.439Z,99955.84
2023-03-22T11:06:03.057Z,99956.91
2023-03-22T11:08:29.663Z,99948.03
2023-03-22T11:10:56.055Z,99948.47
2023-03-22T11:13:23.050Z,99948.09
2023-03-22T11:15:55.096Z,99943.06
2023-03-22T11:18:21.948Z,99942.19
2023-03-22T11:20:57.826Z,99940.38
2023-03-22T11:23:25.220Z,99943.22
2023-03-22T11:25:55.115Z,99945.84
2023-03-22T11:28:25.862Z,99949.66
2023-03-22T11:31:02.973Z,99946.53
2023-03-22T11:33:30.352Z,99959.66
2023-03-22T11:35:58.173Z,99957.22
2023-03-22T11:38:27.461Z,99950.72
2023-03-22T11:40:56.747Z,99954.88
2023-03-22T11:43:25.940Z,99956.50
2023-03-22T11:45:57.070Z,99956.53
2023-03-22T11:48:27.734Z,99971.31
2023-03-22T11:50:58.331Z,99943.31
2023-03-22T11:53:27.051Z,99955.66
2023-03-22T11:55:55.545Z,99948.16
2023-03-22T11:58:26.007Z,99948.06
2023-03-22T12:00:54.871Z,99953.50
2023-03-22T12:03:26.092Z,99955.63
2023-03-22T12:05:54.776Z,99946.75
2023-03-22T12:08:27.538Z,99940.94
2023-03-22T12:11:01.648Z,99945.13
2023-03-22T12:13:36.094Z,99949.44
2023-03-22T12:16:05.775Z,99951.00
2023-03-22T12:18:38.705Z,99947.84
2023-03-22T12:21:09.999Z,99965.88
2023-03-22T12:23:36.728Z,99959.19
2023-03-22T12:26:07.189Z,99944.47
2023-03-22T12:28:39.952Z,99959.69
2023-03-22T12:31:11.234Z,99951.84
2023-03-22T12:33:43.147Z,99954.25
2023-03-22T12:36:16.642Z,99955.31
2023-03-22T12:38:48.162Z,99943.72
2023-03-22T12:41:16.797Z,99959.66
2023-03-22T12:43:50.631Z,99944.38
2023-03-22T12:46:21.401Z,99941.28
2023-03-22T12:48:52.077Z,99946.28
2023-03-22T12:51:19.806Z,99935.72
2023-03-22T12:53:49.865Z,99946.47
2023-03-22T12:56:19.807Z,99933.69
2023-03-22T12:58:49.290Z,99942.28
2023-03-22T13:01:23.477Z,99934.84
2023-03-22T13:03:52.808Z,99916.34
2023-03-22T13:06:34.783Z,99915.66
2023-03-22T13:09:10.941Z,99920.03
2023-03-22T13:11:37.450Z,99910.66
2023-03-22T13:14:04.041Z,99912.88
2023-03-22T13:16:51.739Z,99906.13
2023-03-22T13:19:33.146Z,99903.75
2023-03-22T13:22:25.618Z,99902.38
2023-03-22T13:25:01.164Z,99900.31
2023-03-22T13:27:36.448Z,99891.41
2023-03-22T13:30:03.444Z,99895.25
2023-03-22T13:32:32.181Z,99897.00
2023-03-22T13:34:59.490Z,99896.84
2023-03-22T13:37:32.888Z,99890.06
2023-03-22T13:39:59.322Z,99911.72
2023-03-22T13:42:34.840Z,99892.53
2023-03-22T13:45:01.228Z,99892.25
2023-03-22T13:47:36.967Z,99907.31
2023-03-22T13:50:12.605Z,99900.78
2023-03-22T13:52:43.740Z,99898.72
2023-03-22T13:55:34.180Z,99895.13
2023-03-22T13:58:00.665Z,99905.03
2023-03-22T14:00:38.074Z,99908.28
2023-03-22T14:03:13.896Z,99916.25
2023-03-22T14:05:44.809Z,99918.63
2023-03-22T14:08:21.363Z,99913.66
2023-03-22T14:10:56.207Z,99918.00
2023-03-22T14:13:30.589Z,99925.13
2023-03-22T14:16:02.937Z,99920.84
2023-03-22T14:18:31.229Z,99915.81
2023-03-22T14:21:00.740Z,99913.63
